sensor_id;sensor_type;location;lat;lon;timestamp;temperature;humidity
5429;DHT22;2737;52.386;9.980;2023-05-10T00:02:11;13.50;99.90
5429;DHT22;2737;52.386;9.980;2023-05-10T00:04:38;13.50;99.90
5429;DHT22;2737;52.386;9.980;2023-05-10T00:07:05;13.40;99.90
5429;DHT22;2737;52.386;9.980;2023-05-10T00:09:32;13.40;99.90
5429;DHT22;2737;52.386;9.980;2023-05-10T00:11:59;13.50;99.90
5429;DHT22;2737;52.386;9.980;2023-05-10T00:14:27;13.40;99.90
5429;DHT22;2737;52.386;9.980;2023-05-10T00:16:54;13.50;99.90
5429;DHT22;2737;52.386;9.980;2023-05-10T00:19:21;13.50;99.90
5429;DHT22;2737;52.386;9.980;2023-05-10T00:21:48;13.40;99.90
5429;DHT22;2737;52.386;9.980;2023-05-10T00:24:15;13.40;99.90
5429;DHT22;2737;52.386;9.980;2023-05-10T00:26:42;13.30;99.90
5429;DHT22;2737;52.386;9.980;2023-05-10T00:29:09;13.30;99.90
5429;DHT22;2737;52.386;9.980;2023-05-10T00:31:38;13.20;99.90
5429;DHT22;2737;52.386;9.980;2023-05-10T00:34:05;13.20;99.90
5429;DHT22;2737;52.386;9.980;2023-05-10T00:36:32;13.20;99.90
5429;DHT22;2737;52.386;9.980;2023-05-10T00:38:59;13.20;99.90
5429;DHT22;2737;52.386;9.980;2023-05-10T00:41:26;13.20;99.90
5429;DHT22;2737;52.386;9.980;2023-05-10T00:43:53;13.10;99.90
5429;DHT22;2737;52.386;9.980;2023-05-10T00:46:20;13.10;99.90
5429;DHT22;2737;52.386;9.980;2023-05-10T00:48:50;13.00;99.90
5429;DHT22;2737;52.386;9.980;2023-05-10T00:51:17;13.00;99.90
5429;DHT22;2737;52.386;9.980;2023-05-10T00:53:44;13.00;99.90
5429;DHT22;2737;52.386;9.980;2023-05-10T00:56:12;12.90;99.90
5429;DHT22;2737;52.386;9.980;2023-05-10T00:58:39;12.90;99.90
5429;DHT22;2737;52.386;9.980;2023-05-10T01:01:06;12.90;99.90
5429;DHT22;2737;52.386;9.980;2023-05-10T01:03:35;12.90;99.90
5429;DHT22;2737;52.386;9.980;2023-05-10T01:06:04;12.80;99.90
5429;DHT22;2737;52.386;9.980;2023-05-10T01:08:32;12.80;99.90
5429;DHT22;2737;52.386;9.980;2023-05-10T01:10:59;12.80;99.90
5429;DHT22;2737;52.386;9.980;2023-05-10T01:13:31;12.80;99.90
5429;DHT22;2737;52.386;9.980;2023-05-10T01:15:59;12.70;99.90
5429;DHT22;2737;52.386;9.980;2023-05-10T01:18:29;12.70;99.90
5429;DHT22;2737;52.386;9.980;2023-05-10T01:21:07;12.60;99.90
5429;DHT22;2737;52.386;9.980;2023-05-10T01:23:51;12.60;99.90
5429;DHT22;2737;52.386;9.980;2023-05-10T01:26:45;12.60;99.90
5429;DHT22;2737;52.386;9.980;2023-05-10T01:32:33;12.60;99.90
5429;DHT22;2737;52.386;9.980;2023-05-10T01:35:06;12.50;99.90
5429;DHT22;2737;52.386;9.980;2023-05-10T01:37:41;12.50;99.90
5429;DHT22;2737;52.386;9.980;2023-05-10T01:40:17;12.60;99.90
5429;DHT22;2737;52.386;9.980;2023-05-10T01:42:49;12.60;99.90
5429;DHT22;2737;52.386;9.980;2023-05-10T01:45:22;12.60;99.90
5429;DHT22;2737;52.386;9.980;2023-05-10T01:47:58;12.60;99.90
5429;DHT22;2737;52.386;9.980;2023-05-10T01:50:29;12.60;99.90
5429;DHT22;2737;52.386;9.980;2023-05-10T01:52:58;12.50;99.90
5429;DHT22;2737;52.386;9.980;2023-05-10T01:55:28;12.50;99.90
5429;DHT22;2737;52.386;9.980;2023-05-10T01:58:01;12.50;99.90
5429;DHT22;2737;52.386;9.980;2023-05-10T02:00:31;12.40;99.90
5429;DHT22;2737;52.386;9.980;2023-05-10T02:03:05;12.40;99.90
5429;DHT22;2737;52.386;9.980;2023-05-10T02:05:34;12.30;99.90
5429;DHT22;2737;52.386;9.980;2023-05-10T02:08:05;12.30;99.90
5429;DHT22;2737;52.386;9.980;2023-05-10T02:10:34;12.30;99.90
5429;DHT22;2737;52.386;9.980;2023-05-10T02:13:02;12.30;99.90
5429;DHT22;2737;52.386;9.980;2023-05-10T02:15:30;12.30;99.90
5429;DHT22;2737;52.386;9.980;2023-05-10T02:18:00;12.30;99.90
5429;DHT22;2737;52.386;9.980;2023-05-10T02:20:29;12.30;99.90
5429;DHT22;2737;52.386;9.980;2023-05-10T02:22:58;12.30;99.90
5429;DHT22;2737;52.386;9.980;2023-05-10T02:25:27;12.30;99.90
5429;DHT22;2737;52.386;9.980;2023-05-10T02:27:57;12.30;99.90
5429;DHT22;2737;52.386;9.980;2023-05-10T02:30:25;12.30;99.90
5429;DHT22;2737;52.386;9.980;2023-05-10T02:32:52;12.30;99.90
5429;DHT22;2737;52.386;9.980;2023-05-10T02:35:22;12.30;99.90
5429;DHT22;2737;52.386;9.980;2023-05-10T02:37:50;12.40;99.90
5429;DHT22;2737;52.386;9.980;2023-05-10T02:40:20;12.30;99.90
5429;DHT22;2737;52.386;9.980;2023-05-10T02:42:48;12.30;99.90
5429;DHT22;2737;52.386;9.980;2023-05-10T02:45:29;12.30;99.90
5429;DHT22;2737;52.386;9.980;2023-05-10T02:47:57;12.20;99.90
5429;DHT22;2737;52.386;9.980;2023-05-10T02:50:28;12.30;99.90
5429;DHT22;2737;52.386;9.980;2023-05-10T02:53:00;12.20;99.90
5429;DHT22;2737;52.386;9.980;2023-05-10T02:55:32;12.20;99.90
5429;DHT22;2737;52.386;9.980;2023-05-10T02:58:00;12.20;99.90
5429;DHT22;2737;52.386;9.980;2023-05-10T03:00:28;12.10;99.90
5429;DHT22;2737;52.386;9.980;2023-05-10T03:02:55;12.10;99.90
5429;DHT22;2737;52.386;9.980;2023-05-10T03:05:22;12.10;99.90
5429;DHT22;2737;52.386;9.980;2023-05-10T03:07:52;12.10;99.90
5429;DHT22;2737;52.386;9.980;2023-05-10T03:10:21;12.10;99.90
5429;DHT22;2737;52.386;9.980;2023-05-10T03:13:02;12.10;99.90
5429;DHT22;2737;52.386;9.980;2023-05-10T03:15:37;12.10;99.90
5429;DHT22;2737;52.386;9.980;2023-05-10T03:18:10;12.00;99.90
5429;DHT22;2737;52.386;9.980;2023-05-10T03:20:42;12.00;99.90
5429;DHT22;2737;52.386;9.980;2023-05-10T03:23:22;12.00;99.90
5429;DHT22;2737;52.386;9.980;2023-05-10T03:25:50;12.00;99.90
5429;DHT22;2737;52.386;9.980;2023-05-10T03:28:18;12.00;99.90
5429;DHT22;2737;52.386;9.980;2023-05-10T03:30:46;11.90;99.90
5429;DHT22;2737;52.386;9.980;2023-05-10T03:33:13;11.90;99.90
5429;DHT22;2737;52.386;9.980;2023-05-10T03:35:41;12.00;99.90
5429;DHT22;2737;52.386;9.980;2023-05-10T03:38:12;12.00;99.90
5429;DHT22;2737;52.386;9.980;2023-05-10T03:40:39;12.00;99.90
5429;DHT22;2737;52.386;9.980;2023-05-10T03:43:07;12.00;99.90
5429;DHT22;2737;52.386;9.980;2023-05-10T03:45:34;12.10;99.90
5429;DHT22;2737;52.386;9.980;2023-05-10T03:48:01;12.00;99.90
5429;DHT22;2737;52.386;9.980;2023-05-10T03:50:28;12.10;99.90
5429;DHT22;2737;52.386;9.980;2023-05-10T03:52:55;12.00;99.90
5429;DHT22;2737;52.386;9.980;2023-05-10T03:55:24;12.00;99.90
5429;DHT22;2737;52.386;9.980;2023-05-10T03:57:51;12.00;99.90
5429;DHT22;2737;52.386;9.980;2023-05-10T04:00:19;12.00;99.90
5429;DHT22;2737;52.386;9.980;2023-05-10T04:02:46;11.90;99.90
5429;DHT22;2737;52.386;9.980;2023-05-10T04:05:13;11.90;99.90
5429;DHT22;2737;52.386;9.980;2023-05-10T04:07:45;11.90;99.90
5429;DHT22;2737;52.386;9.980;2023-05-10T04:10:12;11.90;99.90
5429;DHT22;2737;52.386;9.980;2023-05-10T04:12:41;11.90;99.90
5429;DHT22;2737;52.386;9.980;2023-05-10T04:15:08;11.90;99.90
5429;DHT22;2737;52.386;9.980;2023-05-10T04:17:35;11.90;99.90
5429;DHT22;2737;52.386;9.980;2023-05-10T04:20:03;11.90;99.90
5429;DHT22;2737;52.386;9.980;2023-05-10T04:22:32;11.90;99.90
5429;DHT22;2737;52.386;9.980;2023-05-10T04:24:59;11.80;99.90
5429;DHT22;2737;52.386;9.980;2023-05-10T04:27:26;11.80;99.90
5429;DHT22;2737;52.386;9.980;2023-05-10T04:29:54;11.80;99.90
5429;DHT22;2737;52.386;9.980;2023-05-10T04:32:21;11.80;99.90
5429;DHT22;2737;52.386;9.980;2023-05-10T04:34:48;11.80;99.90
5429;DHT22;2737;52.386;9.980;2023-05-10T04:37:16;11.80;99.90
5429;DHT22;2737;52.386;9.980;2023-05-10T04:39:43;11.80;99.90
5429;DHT22;2737;52.386;9.980;2023-05-10T04:42:10;11.90;99.90
5429;DHT22;2737;52.386;9.980;2023-05-10T04:44:37;11.90;99.90
5429;DHT22;2737;52.386;9.980;2023-05-10T04:47:06;11.90;99.90
5429;DHT22;2737;52.386;9.980;2023-05-10T04:49:33;11.80;99.90
5429;DHT22;2737;52.386;9.980;2023-05-10T04:52:00;11.70;99.90
5429;DHT22;2737;52.386;9.980;2023-05-10T04:54:27;11.70;99.90
5429;DHT22;2737;52.386;9.980;2023-05-10T04:56:54;11.70;99.90
5429;DHT22;2737;52.386;9.980;2023-05-10T04:59:21;11.60;99.90
5429;DHT22;2737;52.386;9.980;2023-05-10T05:01:48;11.60;99.90
5429;DHT22;2737;52.386;9.980;2023-05-10T05:04:16;11.70;99.90
5429;DHT22;2737;52.386;9.980;2023-05-10T05:06:43;11.70;99.90
5429;DHT22;2737;52.386;9.980;2023-05-10T05:09:10;11.70;99.90
5429;DHT22;2737;52.386;9.980;2023-05-10T05:11:37;11.60;99.90
5429;DHT22;2737;52.386;9.980;2023-05-10T05:14:05;11.70;99.90
5429;DHT22;2737;52.386;9.980;2023-05-10T05:16:32;11.70;99.90
5429;DHT22;2737;52.386;9.980;2023-05-10T05:19:00;11.70;99.90
5429;DHT22;2737;52.386;9.980;2023-05-10T05:21:28;11.60;99.90
5429;DHT22;2737;52.386;9.980;2023-05-10T05:23:55;11.60;99.90
5429;DHT22;2737;52.386;9.980;2023-05-10T05:26:22;11.60;99.90
5429;DHT22;2737;52.386;9.980;2023-05-10T05:28:49;11.60;99.90
5429;DHT22;2737;52.386;9.980;2023-05-10T05:31:19;11.60;99.90
5429;DHT22;2737;52.386;9.980;2023-05-10T05:33:46;11.60;99.90
5429;DHT22;2737;52.386;9.980;2023-05-10T05:36:13;11.60;99.90
5429;DHT22;2737;52.386;9.980;2023-05-10T05:38:41;11.60;99.90
5429;DHT22;2737;52.386;9.980;2023-05-10T05:41:08;11.60;99.90
5429;DHT22;2737;52.386;9.980;2023-05-10T05:43:35;11.60;99.90
5429;DHT22;2737;52.386;9.980;2023-05-10T05:46:02;11.60;99.90
5429;DHT22;2737;52.386;9.980;2023-05-10T05:48:30;11.60;99.90
5429;DHT22;2737;52.386;9.980;2023-05-10T05:50:57;11.70;99.90
5429;DHT22;2737;52.386;9.980;2023-05-10T05:53:24;11.70;99.90
5429;DHT22;2737;52.386;9.980;2023-05-10T05:55:53;11.70;99.90
5429;DHT22;2737;52.386;9.980;2023-05-10T05:58:21;11.70;99.90
5429;DHT22;2737;52.386;9.980;2023-05-10T06:00:48;11.80;99.90
5429;DHT22;2737;52.386;9.980;2023-05-10T06:03:15;11.80;99.90
5429;DHT22;2737;52.386;9.980;2023-05-10T06:05:42;11.90;99.90
5429;DHT22;2737;52.386;9.980;2023-05-10T06:08:09;12.00;99.90
5429;DHT22;2737;52.386;9.980;2023-05-10T06:10:36;12.10;99.90
5429;DHT22;2737;52.386;9.980;2023-05-10T06:13:04;12.10;99.90
5429;DHT22;2737;52.386;9.980;2023-05-10T06:15:31;12.20;99.90
5429;DHT22;2737;52.386;9.980;2023-05-10T06:17:59;12.30;99.90
5429;DHT22;2737;52.386;9.980;2023-05-10T06:20:26;12.30;99.90
5429;DHT22;2737;52.386;9.980;2023-05-10T06:22:53;12.30;99.90
5429;DHT22;2737;52.386;9.980;2023-05-10T06:25:20;12.40;99.90
5429;DHT22;2737;52.386;9.980;2023-05-10T06:27:47;12.40;99.90
5429;DHT22;2737;52.386;9.980;2023-05-10T06:30:16;12.40;99.90
5429;DHT22;2737;52.386;9.980;2023-05-10T06:32:43;12.50;99.90
5429;DHT22;2737;52.386;9.980;2023-05-10T06:35:10;12.50;99.90
5429;DHT22;2737;52.386;9.980;2023-05-10T06:37:37;12.50;99.90
5429;DHT22;2737;52.386;9.980;2023-05-10T06:40:06;12.60;99.90
5429;DHT22;2737;52.386;9.980;2023-05-10T06:42:33;12.70;99.90
5429;DHT22;2737;52.386;9.980;2023-05-10T06:45:00;12.70;99.90
5429;DHT22;2737;52.386;9.980;2023-05-10T06:47:29;12.70;99.90
5429;DHT22;2737;52.386;9.980;2023-05-10T06:49:56;12.70;99.90
5429;DHT22;2737;52.386;9.980;2023-05-10T06:52:23;12.70;99.90
5429;DHT22;2737;52.386;9.980;2023-05-10T06:54:50;12.80;99.90
5429;DHT22;2737;52.386;9.980;2023-05-10T06:57:17;12.80;99.90
5429;DHT22;2737;52.386;9.980;2023-05-10T06:59:45;12.80;99.90
5429;DHT22;2737;52.386;9.980;2023-05-10T07:02:12;12.80;99.90
5429;DHT22;2737;52.386;9.980;2023-05-10T07:04:41;12.90;99.90
5429;DHT22;2737;52.386;9.980;2023-05-10T07:07:08;12.90;99.90
5429;DHT22;2737;52.386;9.980;2023-05-10T07:09:35;12.90;99.90
5429;DHT22;2737;52.386;9.980;2023-05-10T07:12:03;12.90;99.90
5429;DHT22;2737;52.386;9.980;2023-05-10T07:14:30;13.00;99.90
5429;DHT22;2737;52.386;9.980;2023-05-10T07:16:57;12.90;99.90
5429;DHT22;2737;52.386;9.980;2023-05-10T07:19:24;12.90;99.90
5429;DHT22;2737;52.386;9.980;2023-05-10T07:21:52;12.90;99.90
5429;DHT22;2737;52.386;9.980;2023-05-10T07:24:19;12.90;99.90
5429;DHT22;2737;52.386;9.980;2023-05-10T07:26:46;12.90;99.90
5429;DHT22;2737;52.386;9.980;2023-05-10T07:29:13;12.90;99.90
5429;DHT22;2737;52.386;9.980;2023-05-10T07:31:40;12.90;99.90
5429;DHT22;2737;52.386;9.980;2023-05-10T07:34:08;13.00;99.90
5429;DHT22;2737;52.386;9.980;2023-05-10T07:36:35;13.10;99.90
5429;DHT22;2737;52.386;9.980;2023-05-10T07:39:04;13.10;99.90
5429;DHT22;2737;52.386;9.980;2023-05-10T07:41:31;13.10;99.90
5429;DHT22;2737;52.386;9.980;2023-05-10T07:43:58;13.20;99.90
5429;DHT22;2737;52.386;9.980;2023-05-10T07:46:25;13.30;99.90
5429;DHT22;2737;52.386;9.980;2023-05-10T07:48:52;13.40;99.90
5429;DHT22;2737;52.386;9.980;2023-05-10T07:51:19;13.50;99.90
5429;DHT22;2737;52.386;9.980;2023-05-10T07:53:47;13.50;99.90
5429;DHT22;2737;52.386;9.980;2023-05-10T07:56:23;13.60;99.90
5429;DHT22;2737;52.386;9.980;2023-05-10T07:58:50;13.50;99.90
5429;DHT22;2737;52.386;9.980;2023-05-10T08:01:18;13.50;99.90
5429;DHT22;2737;52.386;9.980;2023-05-10T08:03:45;13.50;99.90
5429;DHT22;2737;52.386;9.980;2023-05-10T08:06:12;13.50;99.90
5429;DHT22;2737;52.386;9.980;2023-05-10T08:08:39;13.60;99.90
5429;DHT22;2737;52.386;9.980;2023-05-10T08:11:06;13.60;99.90
5429;DHT22;2737;52.386;9.980;2023-05-10T08:13:35;13.60;99.90
5429;DHT22;2737;52.386;9.980;2023-05-10T08:16:02;13.50;99.90
5429;DHT22;2737;52.386;9.980;2023-05-10T08:18:29;13.50;99.90
5429;DHT22;2737;52.386;9.980;2023-05-10T08:20:56;13.40;99.90
5429;DHT22;2737;52.386;9.980;2023-05-10T08:23:23;13.40;99.90
5429;DHT22;2737;52.386;9.980;2023-05-10T08:25:50;13.40;99.90
5429;DHT22;2737;52.386;9.980;2023-05-10T08:28:17;13.40;99.90
5429;DHT22;2737;52.386;9.980;2023-05-10T08:30:45;13.40;99.90
5429;DHT22;2737;52.386;9.980;2023-05-10T08:33:12;13.30;99.90
5429;DHT22;2737;52.386;9.980;2023-05-10T08:35:39;13.30;99.90
5429;DHT22;2737;52.386;9.980;2023-05-10T08:38:06;13.30;99.90
5429;DHT22;2737;52.386;9.980;2023-05-10T08:40:34;13.20;99.90
5429;DHT22;2737;52.386;9.980;2023-05-10T08:43:05;13.20;99.90
5429;DHT22;2737;52.386;9.980;2023-05-10T08:45:33;13.30;99.90
5429;DHT22;2737;52.386;9.980;2023-05-10T08:48:05;13.30;99.90
5429;DHT22;2737;52.386;9.980;2023-05-10T08:50:36;13.20;99.90
5429;DHT22;2737;52.386;9.980;2023-05-10T08:53:05;13.20;99.90
5429;DHT22;2737;52.386;9.980;2023-05-10T08:55:33;13.20;99.90
5429;DHT22;2737;52.386;9.980;2023-05-10T08:58:02;13.20;99.90
5429;DHT22;2737;52.386;9.980;2023-05-10T09:00:30;13.30;99.90
5429;DHT22;2737;52.386;9.980;2023-05-10T09:02:57;13.40;99.90
5429;DHT22;2737;52.386;9.980;2023-05-10T09:05:26;13.50;99.90
5429;DHT22;2737;52.386;9.980;2023-05-10T09:07:53;13.60;99.90
5429;DHT22;2737;52.386;9.980;2023-05-10T09:10:21;13.60;99.90
5429;DHT22;2737;52.386;9.980;2023-05-10T09:12:48;13.60;99.90
5429;DHT22;2737;52.386;9.980;2023-05-10T09:15:15;13.60;99.90
5429;DHT22;2737;52.386;9.980;2023-05-10T09:17:45;13.70;99.90
5429;DHT22;2737;52.386;9.980;2023-05-10T09:20:12;13.70;99.90
5429;DHT22;2737;52.386;9.980;2023-05-10T09:22:40;13.80;99.90
5429;DHT22;2737;52.386;9.980;2023-05-10T09:25:09;13.70;99.90
5429;DHT22;2737;52.386;9.980;2023-05-10T09:27:37;13.80;99.90
5429;DHT22;2737;52.386;9.980;2023-05-10T09:30:05;13.90;99.90
5429;DHT22;2737;52.386;9.980;2023-05-10T09:32:37;13.80;99.90
5429;DHT22;2737;52.386;9.980;2023-05-10T09:35:08;13.90;99.90
5429;DHT22;2737;52.386;9.980;2023-05-10T09:37:35;13.80;99.90
5429;DHT22;2737;52.386;9.980;2023-05-10T09:40:10;13.70;99.90
5429;DHT22;2737;52.386;9.980;2023-05-10T09:42:38;13.70;99.90
5429;DHT22;2737;52.386;9.980;2023-05-10T09:45:06;13.70;99.90
5429;DHT22;2737;52.386;9.980;2023-05-10T09:47:34;13.60;99.90
5429;DHT22;2737;52.386;9.980;2023-05-10T09:50:02;13.50;99.90
5429;DHT22;2737;52.386;9.980;2023-05-10T09:52:30;13.50;99.90
5429;DHT22;2737;52.386;9.980;2023-05-10T09:54:57;13.40;99.90
5429;DHT22;2737;52.386;9.980;2023-05-10T09:57:26;13.40;99.90
5429;DHT22;2737;52.386;9.980;2023-05-10T09:59:53;13.40;99.90
5429;DHT22;2737;52.386;9.980;2023-05-10T10:02:21;13.40;99.90
5429;DHT22;2737;52.386;9.980;2023-05-10T10:04:55;13.40;99.90
5429;DHT22;2737;52.386;9.980;2023-05-10T10:07:23;13.50;99.90
5429;DHT22;2737;52.386;9.980;2023-05-10T10:09:51;13.50;99.90
5429;DHT22;2737;52.386;9.980;2023-05-10T10:12:19;13.50;99.90
5429;DHT22;2737;52.386;9.980;2023-05-10T10:14:48;13.40;99.90
5429;DHT22;2737;52.386;9.980;2023-05-10T10:17:16;13.50;99.90
5429;DHT22;2737;52.386;9.980;2023-05-10T10:19:43;13.60;99.90
5429;DHT22;2737;52.386;9.980;2023-05-10T10:22:11;13.70;99.90
5429;DHT22;2737;52.386;9.980;2023-05-10T10:24:38;13.80;99.90
5429;DHT22;2737;52.386;9.980;2023-05-10T10:27:19;13.80;99.90
5429;DHT22;2737;52.386;9.980;2023-05-10T10:29:58;13.90;99.90
5429;DHT22;2737;52.386;9.980;2023-05-10T10:32:30;14.00;99.90
5429;DHT22;2737;52.386;9.980;2023-05-10T10:35:03;14.00;99.90
5429;DHT22;2737;52.386;9.980;2023-05-10T10:37:45;14.10;99.90
5429;DHT22;2737;52.386;9.980;2023-05-10T10:40:26;14.10;99.90
5429;DHT22;2737;52.386;9.980;2023-05-10T10:42:53;14.10;99.90
5429;DHT22;2737;52.386;9.980;2023-05-10T10:45:24;14.20;99.90
5429;DHT22;2737;52.386;9.980;2023-05-10T10:48:20;14.20;99.90
5429;DHT22;2737;52.386;9.980;2023-05-10T10:50:51;14.20;99.90
5429;DHT22;2737;52.386;9.980;2023-05-10T10:53:22;14.20;99.90
5429;DHT22;2737;52.386;9.980;2023-05-10T10:55:49;14.20;99.90
5429;DHT22;2737;52.386;9.980;2023-05-10T10:58:29;14.30;99.90
5429;DHT22;2737;52.386;9.980;2023-05-10T11:01:13;14.40;99.90
5429;DHT22;2737;52.386;9.980;2023-05-10T11:03:41;14.40;99.90
5429;DHT22;2737;52.386;9.980;2023-05-10T11:06:29;14.50;99.90
5429;DHT22;2737;52.386;9.980;2023-05-10T11:08:57;14.70;99.90
5429;DHT22;2737;52.386;9.980;2023-05-10T11:11:24;14.70;99.90
5429;DHT22;2737;52.386;9.980;2023-05-10T11:13:51;14.80;99.90
5429;DHT22;2737;52.386;9.980;2023-05-10T11:16:21;14.80;99.90
5429;DHT22;2737;52.386;9.980;2023-05-10T11:18:57;14.80;99.90
5429;DHT22;2737;52.386;9.980;2023-05-10T11:21:25;14.90;99.90
5429;DHT22;2737;52.386;9.980;2023-05-10T11:23:53;15.00;99.90
5429;DHT22;2737;52.386;9.980;2023-05-10T11:26:22;14.90;99.90
5429;DHT22;2737;52.386;9.980;2023-05-10T11:28:52;15.00;99.90
5429;DHT22;2737;52.386;9.980;2023-05-10T11:31:22;15.10;99.90
5429;DHT22;2737;52.386;9.980;2023-05-10T11:33:53;15.10;99.90
5429;DHT22;2737;52.386;9.980;2023-05-10T11:36:23;15.10;99.90
5429;DHT22;2737;52.386;9.980;2023-05-10T11:38:51;15.30;99.90
5429;DHT22;2737;52.386;9.980;2023-05-10T11:41:19;15.40;99.90
5429;DHT22;2737;52.386;9.980;2023-05-10T11:43:49;15.40;99.90
5429;DHT22;2737;52.386;9.980;2023-05-10T11:46:19;15.60;99.90
5429;DHT22;2737;52.386;9.980;2023-05-10T11:48:49;15.70;99.90
5429;DHT22;2737;52.386;9.980;2023-05-10T11:51:20;15.70;99.90
5429;DHT22;2737;52.386;9.980;2023-05-10T11:53:47;15.80;99.90
5429;DHT22;2737;52.386;9.980;2023-05-10T11:56:15;15.90;99.90
5429;DHT22;2737;52.386;9.980;2023-05-10T11:58:42;16.00;99.90
5429;DHT22;2737;52.386;9.980;2023-05-10T12:01:10;16.10;99.90
5429;DHT22;2737;52.386;9.980;2023-05-10T12:03:38;16.20;99.90
5429;DHT22;2737;52.386;9.980;2023-05-10T12:06:07;16.20;99.90
5429;DHT22;2737;52.386;9.980;2023-05-10T12:08:35;16.30;99.90
5429;DHT22;2737;52.386;9.980;2023-05-10T12:11:06;16.30;99.90
5429;DHT22;2737;52.386;9.980;2023-05-10T12:13:38;16.30;99.90
5429;DHT22;2737;52.386;9.980;2023-05-10T12:16:15;16.40;99.90
5429;DHT22;2737;52.386;9.980;2023-05-10T12:18:42;16.40;99.90
5429;DHT22;2737;52.386;9.980;2023-05-10T12:21:11;16.40;99.90
5429;DHT22;2737;52.386;9.980;2023-05-10T12:23:39;16.60;99.90
5429;DHT22;2737;52.386;9.980;2023-05-10T12:26:06;16.60;99.90
5429;DHT22;2737;52.386;9.980;2023-05-10T12:28:35;16.70;99.90
5429;DHT22;2737;52.386;9.980;2023-05-10T12:31:02;17.00;99.90
5429;DHT22;2737;52.386;9.980;2023-05-10T12:33:35;17.10;99.90
5429;DHT22;2737;52.386;9.980;2023-05-10T12:36:05;17.40;99.90
5429;DHT22;2737;52.386;9.980;2023-05-10T12:38:34;17.60;99.90
5429;DHT22;2737;52.386;9.980;2023-05-10T12:41:04;17.60;99.90
5429;DHT22;2737;52.386;9.980;2023-05-10T12:43:32;17.50;99.90
5429;DHT22;2737;52.386;9.980;2023-05-10T12:46:04;17.60;99.90
5429;DHT22;2737;52.386;9.980;2023-05-10T12:48:31;17.70;99.90
5429;DHT22;2737;52.386;9.980;2023-05-10T12:50:59;17.70;99.90
5429;DHT22;2737;52.386;9.980;2023-05-10T12:53:26;17.70;99.90
5429;DHT22;2737;52.386;9.980;2023-05-10T12:55:55;17.90;99.90
5429;DHT22;2737;52.386;9.980;2023-05-10T12:58:22;18.00;99.90
5429;DHT22;2737;52.386;9.980;2023-05-10T13:00:49;18.10;99.90
5429;DHT22;2737;52.386;9.980;2023-05-10T13:03:17;18.20;99.90
5429;DHT22;2737;52.386;9.980;2023-05-10T13:05:44;18.30;99.90
5429;DHT22;2737;52.386;9.980;2023-05-10T13:08:12;18.30;99.90
5429;DHT22;2737;52.386;9.980;2023-05-10T13:10:39;18.20;99.90
5429;DHT22;2737;52.386;9.980;2023-05-10T13:13:07;18.20;99.90
5429;DHT22;2737;52.386;9.980;2023-05-10T13:15:35;18.30;99.90
5429;DHT22;2737;52.386;9.980;2023-05-10T13:18:02;18.20;99.90
5429;DHT22;2737;52.386;9.980;2023-05-10T13:20:29;18.20;99.90
5429;DHT22;2737;52.386;9.980;2023-05-10T13:22:56;18.20;99.90
5429;DHT22;2737;52.386;9.980;2023-05-10T13:25:23;18.20;99.90
5429;DHT22;2737;52.386;9.980;2023-05-10T13:27:50;18.30;99.90
5429;DHT22;2737;52.386;9.980;2023-05-10T13:30:19;18.10;99.90
5429;DHT22;2737;52.386;9.980;2023-05-10T13:32:46;18.10;99.90
5429;DHT22;2737;52.386;9.980;2023-05-10T13:35:13;18.20;99.90
5429;DHT22;2737;52.386;9.980;2023-05-10T13:37:40;18.20;99.90
5429;DHT22;2737;52.386;9.980;2023-05-10T13:40:08;18.20;99.90
5429;DHT22;2737;52.386;9.980;2023-05-10T13:42:35;18.30;99.90
5429;DHT22;2737;52.386;9.980;2023-05-10T13:45:03;18.40;99.90
5429;DHT22;2737;52.386;9.980;2023-05-10T13:47:32;18.40;99.90
5429;DHT22;2737;52.386;9.980;2023-05-10T13:49:59;18.30;99.90
5429;DHT22;2737;52.386;9.980;2023-05-10T13:52:26;18.50;99.90
5429;DHT22;2737;52.386;9.980;2023-05-10T13:54:54;18.70;99.90
5429;DHT22;2737;52.386;9.980;2023-05-10T13:57:22;18.80;99.90
5429;DHT22;2737;52.386;9.980;2023-05-10T13:59:49;18.60;99.90
5429;DHT22;2737;52.386;9.980;2023-05-10T14:02:17;18.70;99.90
5429;DHT22;2737;52.386;9.980;2023-05-10T14:04:45;18.50;99.90
5429;DHT22;2737;52.386;9.980;2023-05-10T14:07:12;18.40;99.90
5429;DHT22;2737;52.386;9.980;2023-05-10T14:09:39;18.40;99.90
5429;DHT22;2737;52.386;9.980;2023-05-10T14:12:06;18.40;99.90
5429;DHT22;2737;52.386;9.980;2023-05-10T14:14:33;18.30;99.90
5429;DHT22;2737;52.386;9.980;2023-05-10T14:17:00;18.30;99.90
5429;DHT22;2737;52.386;9.980;2023-05-10T14:19:36;18.30;99.90
5429;DHT22;2737;52.386;9.980;2023-05-10T14:22:05;18.20;99.90
5429;DHT22;2737;52.386;9.980;2023-05-10T14:24:32;18.30;99.90
5429;DHT22;2737;52.386;9.980;2023-05-10T14:26:59;18.30;99.90
5429;DHT22;2737;52.386;9.980;2023-05-10T14:29:26;18.30;99.90
5429;DHT22;2737;52.386;9.980;2023-05-10T14:31:53;18.30;99.90
5429;DHT22;2737;52.386;9.980;2023-05-10T14:34:21;18.40;99.90
5429;DHT22;2737;52.386;9.980;2023-05-10T14:36:48;18.20;99.90
5429;DHT22;2737;52.386;9.980;2023-05-10T14:39:16;18.10;99.90
5429;DHT22;2737;52.386;9.980;2023-05-10T14:41:44;18.00;99.90
5429;DHT22;2737;52.386;9.980;2023-05-10T14:44:11;18.10;99.90
5429;DHT22;2737;52.386;9.980;2023-05-10T14:46:38;18.10;99.90
5429;DHT22;2737;52.386;9.980;2023-05-10T14:49:06;18.00;99.90
5429;DHT22;2737;52.386;9.980;2023-05-10T14:51:33;17.90;99.90
5429;DHT22;2737;52.386;9.980;2023-05-10T14:54:02;17.30;99.90
5429;DHT22;2737;52.386;9.980;2023-05-10T14:56:31;17.00;99.90
5429;DHT22;2737;52.386;9.980;2023-05-10T14:58:58;17.00;99.90
5429;DHT22;2737;52.386;9.980;2023-05-10T15:01:25;16.90;99.90
5429;DHT22;2737;52.386;9.980;2023-05-10T15:03:52;16.70;99.90
5429;DHT22;2737;52.386;9.980;2023-05-10T15:06:23;16.70;99.90
5429;DHT22;2737;52.386;9.980;2023-05-10T15:08:51;16.70;99.90
5429;DHT22;2737;52.386;9.980;2023-05-10T15:11:18;16.50;99.90
5429;DHT22;2737;52.386;9.980;2023-05-10T15:13:47;16.40;99.90
5429;DHT22;2737;52.386;9.980;2023-05-10T15:16:14;16.30;99.90
5429;DHT22;2737;52.386;9.980;2023-05-10T15:18:43;16.30;99.90
5429;DHT22;2737;52.386;9.980;2023-05-10T15:21:10;16.20;99.90
5429;DHT22;2737;52.386;9.980;2023-05-10T15:23:37;16.20;99.90
5429;DHT22;2737;52.386;9.980;2023-05-10T15:26:04;16.10;99.90
5429;DHT22;2737;52.386;9.980;2023-05-10T15:28:31;16.20;99.90
5429;DHT22;2737;52.386;9.980;2023-05-10T15:31:00;16.20;99.90
5429;DHT22;2737;52.386;9.980;2023-05-10T15:33:26;16.10;99.90
5429;DHT22;2737;52.386;9.980;2023-05-10T15:35:54;15.80;99.90
5429;DHT22;2737;52.386;9.980;2023-05-10T15:38:21;15.80;99.90
5429;DHT22;2737;52.386;9.980;2023-05-10T15:40:48;15.80;99.90
5429;DHT22;2737;52.386;9.980;2023-05-10T15:43:15;15.80;99.90
5429;DHT22;2737;52.386;9.980;2023-05-10T15:45:42;15.70;99.90
5429;DHT22;2737;52.386;9.980;2023-05-10T15:48:10;15.60;99.90
5429;DHT22;2737;52.386;9.980;2023-05-10T15:50:37;15.50;99.90
5429;DHT22;2737;52.386;9.980;2023-05-10T15:53:05;15.40;99.90
5429;DHT22;2737;52.386;9.980;2023-05-10T15:55:32;15.40;99.90
5429;DHT22;2737;52.386;9.980;2023-05-10T15:58:00;15.30;99.90
5429;DHT22;2737;52.386;9.980;2023-05-10T16:00:27;15.30;99.90
5429;DHT22;2737;52.386;9.980;2023-05-10T16:02:55;15.30;99.90
5429;DHT22;2737;52.386;9.980;2023-05-10T16:05:23;15.30;99.90
5429;DHT22;2737;52.386;9.980;2023-05-10T16:07:52;15.30;99.90
5429;DHT22;2737;52.386;9.980;2023-05-10T16:10:19;15.40;99.90
5429;DHT22;2737;52.386;9.980;2023-05-10T16:12:46;15.40;99.90
5429;DHT22;2737;52.386;9.980;2023-05-10T16:15:13;15.30;99.90